Terminal Aerodrome Forecast
Issued by NWS

Home | Current Version | Previous Version | Text Only | Print | Product List | Glossary On
Versions: 1 2 3 4 5 6 7 8 9 10 11 12 13 14 15 16 17
000
FTUS45 KRIW 290500
TAFCPR
TAF
KCPR 290533Z 2906/3006 01006KT P6SM VCSH SCT025 BKN035
     FM290900 01007KT P6SM -RA OVC028
     FM292100 03006KT P6SM VCSH OVC030
     FM300100 09008KT P6SM OVC035=

USA.gov is the U.S. government's official web portal to all federal, state and local government web resources and services.